Time;durP1;ratioP1;P1;durP2;ratioP2;P2;SDS_P1;SDS_P2;PMS_P1;PMS_P2;Temp;Humidity;BMP_temperature;BMP_pressure;BME280_temperature;BME280_humidity;BME280_pressure;Samples;Min_cycle;Max_cycle;Signal;HPM_P1;HPM_P2
2024/01/13 00:01:48;;;;;;;17.73;4.47;;;;;;;-144.73;100.00;54748.44;5037305;28;20033;-79
2024/01/13 00:04:14;;;;;;;23.20;5.18;;;;;;;-144.73;100.00;54715.59;5037342;28;20016;-79
2024/01/13 00:06:39;;;;;;;31.70;5.88;;;;;;;-144.73;100.00;54703.28;5037034;28;20029;-79
2024/01/13 00:09:05;;;;;;;18.58;5.30;;;;;;;-144.73;100.00;54748.44;5038001;28;20082;-79
2024/01/13 00:11:30;;;;;;;30.67;5.43;;;;;;;-144.73;100.00;54752.53;5036481;28;20090;-79
2024/01/13 00:13:59;;;;;;;29.98;6.32;;;;;;;-144.73;100.00;54756.66;5037991;28;20028;-79
2024/01/13 00:16:24;;;;;;;18.45;4.38;;;;;;;-144.73;100.00;54715.59;5036620;28;20029;-78
2024/01/13 00:18:50;;;;;;;21.05;5.57;;;;;;;-144.73;100.00;54736.13;5037684;28;20033;-78
2024/01/13 00:21:15;;;;;;;16.45;4.05;;;;;;;-144.73;100.00;54736.13;5031682;28;20033;-79
2024/01/13 00:23:41;;;;;;;19.40;4.50;;;;;;;-144.73;100.00;54754.59;5034263;28;20023;-78
2024/01/13 00:26:06;;;;;;;24.70;5.57;;;;;;;-144.73;100.00;54779.22;5035498;28;20029;-78
2024/01/13 00:28:32;;;;;;;18.27;5.00;;;;;;;-144.73;100.00;54711.47;5036587;28;20028;-77
2024/01/13 00:30:57;;;;;;;19.80;4.55;;;;;;;-144.73;100.00;54723.81;5038145;28;20041;-79
2024/01/13 00:33:22;;;;;;;22.88;5.20;;;;;;;-144.73;100.00;54740.22;5036768;28;20021;-78
2024/01/13 00:35:48;;;;;;;20.10;4.07;;;;;;;-144.73;100.00;54736.13;5036005;28;20191;-78
2024/01/13 00:38:14;;;;;;;12.38;3.72;;;;;;;-144.73;100.00;54725.84;5033688;28;20029;-78
2024/01/13 00:40:39;;;;;;;24.67;4.20;;;;;;;-144.73;100.00;54756.66;5036392;28;20056;-77
2024/01/13 00:43:04;;;;;;;21.65;4.03;;;;;;;-144.73;100.00;54752.53;5031366;28;20507;-77
2024/01/13 00:45:34;;;;;;;13.38;3.67;;;;;;;-144.73;100.00;54744.31;5035252;28;20107;-78
2024/01/13 00:48:00;;;;;;;11.45;3.67;;;;;;;-144.73;100.00;54711.47;5038659;28;20032;-77
2024/01/13 00:50:26;;;;;;;14.18;3.47;;;;;;;-144.73;100.00;54760.75;5041724;28;20025;-79
2024/01/13 00:52:51;;;;;;;16.45;3.47;;;;;;;-144.73;100.00;54740.22;5038268;28;20025;-77
2024/01/13 00:55:16;;;;;;;22.38;3.33;;;;;;;-144.73;100.00;54773.06;5035603;28;20043;-77
2024/01/13 00:57:42;;;;;;;10.55;4.30;;;;;;;-144.73;100.00;54711.47;5035428;28;20036;-77
2024/01/13 01:00:08;;;;;;;25.45;4.20;;;;;;;-144.73;100.00;54756.66;5035518;28;20017;-78
2024/01/13 01:02:33;;;;;;;13.48;4.25;;;;;;;-144.73;100.00;54746.38;5034718;28;20041;-78
2024/01/13 01:04:58;;;;;;;18.55;4.80;;;;;;;-144.73;100.00;54756.66;5035361;28;20032;-76
2024/01/13 01:07:24;;;;;;;14.40;3.90;;;;;;;-144.73;100.00;54732.00;5034634;28;20041;-76
2024/01/13 01:09:49;;;;;;;18.20;4.47;;;;;;;-144.73;100.00;54781.28;5035642;28;20021;-76
2024/01/13 01:12:15;;;;;;;14.38;3.72;;;;;;;-144.73;100.00;54736.13;5034534;28;20171;-78
2024/01/13 01:14:43;;;;;;;12.40;4.15;;;;;;;-144.73;100.00;54711.47;5035052;28;20105;-77
2024/01/13 01:17:09;;;;;;;16.10;4.75;;;;;;;-144.73;100.00;54801.81;5034349;28;20056;-77
2024/01/13 01:19:34;;;;;;;25.17;4.82;;;;;;;-144.73;100.00;54742.28;5035386;28;20055;-77
2024/01/13 01:22:00;;;;;;;14.07;4.55;;;;;;;-144.73;100.00;54752.53;5034687;28;20087;-78
2024/01/13 01:24:25;;;;;;;15.65;5.15;;;;;;;-144.73;100.00;54721.75;5034862;28;20143;-77
2024/01/13 01:26:51;;;;;;;17.48;5.45;;;;;;;-144.73;100.00;54723.81;5034097;28;20076;-78
2024/01/13 01:29:16;;;;;;;13.82;4.80;;;;;;;-144.73;100.00;54723.81;5033384;28;20086;-78
2024/01/13 01:31:41;;;;;;;16.58;4.78;;;;;;;-144.73;100.00;54752.53;5027051;28;20127;-77
2024/01/13 01:34:07;;;;;;;16.23;5.32;;;;;;;-144.73;100.00;54744.31;5034017;28;20028;-78
2024/01/13 01:36:32;;;;;;;16.70;5.40;;;;;;;-144.73;100.00;54723.81;5034456;28;20488;-77
2024/01/13 01:39:01;;;;;;;27.40;6.47;;;;;;;-144.73;100.00;54707.38;5033827;28;20029;-77
2024/01/13 01:41:26;;;;;;;19.45;6.38;;;;;;;-144.73;100.00;54781.28;5034799;28;20064;-78
2024/01/13 01:43:51;;;;;;;24.02;8.10;;;;;;;-144.73;100.00;54746.38;5034466;28;20067;-77
2024/01/13 01:46:20;;;;;;;33.30;7.80;;;;;;;-144.73;100.00;54777.16;5034106;28;20059;-77
2024/01/13 01:48:46;;;;;;;25.38;9.63;;;;;;;-144.73;100.00;54732.00;5034996;28;20024;-77
2024/01/13 01:51:16;;;;;;;28.27;9.00;;;;;;;-144.73;100.00;54760.75;5033930;28;20197;-77
2024/01/13 01:53:43;;;;;;;33.58;9.35;;;;;;;-144.73;100.00;54744.31;5034280;28;20017;-78
2024/01/13 01:56:14;;;;;;;31.63;9.98;;;;;;;-144.73;100.00;54736.13;5034209;28;20041;-77
2024/01/13 01:58:41;;;;;;;31.77;9.90;;;;;;;-144.73;100.00;54727.91;5028528;28;20025;-77
2024/01/13 02:01:07;;;;;;;25.30;8.93;;;;;;;-144.73;100.00;54725.84;5033949;28;20284;-77
2024/01/13 02:03:34;;;;;;;23.02;9.27;;;;;;;-144.73;100.00;54768.97;5033831;28;20369;-76
2024/01/13 02:06:01;;;;;;;20.92;8.48;;;;;;;-144.73;100.00;54748.44;5033867;28;20033;-77
2024/01/13 02:08:27;;;;;;;21.20;8.18;;;;;;;-144.73;100.00;54744.31;5033750;28;20048;-75
2024/01/13 02:10:52;;;;;;;26.15;9.02;;;;;;;-144.73;100.00;54754.59;5033733;28;20033;-76
2024/01/13 02:13:17;;;;;;;28.20;8.20;;;;;;;-144.73;100.00;54736.13;5032745;28;20029;-77
2024/01/13 02:15:45;;;;;;;22.10;7.65;;;;;;;-144.73;100.00;54695.06;5033851;28;20025;-76
2024/01/13 02:18:11;;;;;;;32.33;8.38;;;;;;;-144.73;100.00;54773.06;5033887;28;20060;-76
2024/01/13 02:20:36;;;;;;;20.77;5.90;;;;;;;-144.73;100.00;54768.97;5033363;28;20060;-75
2024/01/13 02:23:01;;;;;;;15.05;6.10;;;;;;;-144.73;100.00;54740.22;5033855;28;20032;-76
2024/01/13 02:25:28;;;;;;;21.83;6.50;;;;;;;-144.73;100.00;54752.53;5017460;28;20143;-75
2024/01/13 02:27:53;;;;;;;19.77;5.65;;;;;;;-144.73;100.00;54736.13;5033438;28;20132;-77
2024/01/13 02:30:19;;;;;;;18.67;5.88;;;;;;;-144.73;100.00;54777.16;5034168;28;20083;-78
2024/01/13 02:32:44;;;;;;;15.48;5.25;;;;;;;-144.73;100.00;54748.44;5034285;28;20064;-78
2024/01/13 02:35:10;;;;;;;22.65;5.32;;;;;;;-144.73;100.00;54736.13;5034246;28;20468;-78
2024/01/13 02:37:35;;;;;;;19.23;6.10;;;;;;;-144.73;100.00;54732.00;5033743;28;20037;-78
2024/01/13 02:40:01;;;;;;;15.30;6.43;;;;;;;-144.73;100.00;54764.84;5032854;28;20045;-77
2024/01/13 02:42:26;;;;;;;14.45;6.28;;;;;;;-144.73;100.00;54723.81;5033296;28;20045;-78
2024/01/13 02:44:51;;;;;;;18.58;5.75;;;;;;;-144.73;100.00;54742.28;5033848;28;20033;-77
2024/01/13 02:47:22;;;;;;;19.95;6.28;;;;;;;-144.73;100.00;54768.97;5033067;28;20056;-76
2024/01/13 02:49:48;;;;;;;18.10;5.65;;;;;;;-144.73;100.00;54752.53;5033895;28;20111;-78
2024/01/13 02:52:13;;;;;;;18.27;5.65;;;;;;;-144.73;100.00;54756.66;5032621;28;20117;-78
2024/01/13 02:54:38;;;;;;;17.38;5.63;;;;;;;-144.73;100.00;54748.44;5034034;28;20028;-77
2024/01/13 02:57:04;;;;;;;22.92;6.43;;;;;;;-144.73;100.00;54752.53;5032930;28;20037;-77
2024/01/13 02:59:30;;;;;;;19.35;6.40;;;;;;;-144.73;100.00;54766.91;5033385;28;20510;-78
2024/01/13 03:01:55;;;;;;;21.98;6.10;;;;;;;-144.73;100.00;54768.97;5034068;28;20048;-78
2024/01/13 03:04:20;;;;;;;19.58;5.82;;;;;;;-144.73;100.00;54736.13;5033153;28;20094;-78
2024/01/13 03:06:46;;;;;;;16.73;6.00;;;;;;;-144.73;100.00;54723.81;5033101;28;20033;-77
2024/01/13 03:09:12;;;;;;;18.80;5.38;;;;;;;-144.73;100.00;54740.22;5033306;28;20028;-78
2024/01/13 03:11:40;;;;;;;16.45;6.10;;;;;;;-144.73;100.00;54764.84;5027273;28;20036;-78
2024/01/13 03:14:05;;;;;;;16.40;6.57;;;;;;;-144.73;100.00;54773.06;5034462;28;20033;-77
2024/01/13 03:16:34;;;;;;;25.77;6.85;;;;;;;-144.73;100.00;54775.13;5032829;28;20029;-79
2024/01/13 03:18:59;;;;;;;14.85;6.05;;;;;;;-144.73;100.00;54732.00;5033541;28;20036;-78
2024/01/13 03:21:24;;;;;;;26.63;8.30;;;;;;;-144.73;100.00;54785.38;5033017;28;20040;-78
2024/01/13 03:23:50;;;;;;;22.25;7.53;;;;;;;-144.73;100.00;54764.84;5033174;28;20107;-77
2024/01/13 03:26:18;;;;;;;18.95;6.50;;;;;;;-144.73;100.00;54717.66;5026276;28;20025;-78
2024/01/13 03:28:49;;;;;;;22.77;8.30;;;;;;;-144.73;100.00;54760.75;5031945;28;20017;-78
2024/01/13 03:31:14;;;;;;;26.20;8.45;;;;;;;-144.73;100.00;54768.97;5033901;28;20028;-78
2024/01/13 03:33:40;;;;;;;27.77;9.00;;;;;;;-144.73;100.00;54736.13;5033326;28;20017;-77
2024/01/13 03:36:05;;;;;;;18.70;9.02;;;;;;;-144.73;100.00;54756.66;5033060;28;20029;-77
2024/01/13 03:38:31;;;;;;;33.80;10.25;;;;;;;-144.73;100.00;54768.97;5032481;28;20086;-77
2024/01/13 03:40:56;;;;;;;19.35;8.82;;;;;;;-144.73;100.00;54736.13;5031393;28;20056;-78
2024/01/13 03:43:22;;;;;;;23.58;9.45;;;;;;;-144.73;100.00;54748.44;5034775;28;20028;-77
2024/01/13 03:45:47;;;;;;;25.60;9.48;;;;;;;-144.73;100.00;54732.00;5036212;28;20021;-78
2024/01/13 03:48:13;;;;;;;20.67;8.27;;;;;;;-144.73;100.00;54777.16;5031466;28;20028;-77
2024/01/13 03:50:38;;;;;;;26.95;9.15;;;;;;;-144.73;100.00;54768.97;5033105;28;20049;-77
2024/01/13 03:53:03;;;;;;;23.35;8.27;;;;;;;-144.73;100.00;54756.66;5034192;28;20055;-77
2024/01/13 03:55:32;;;;;;;19.20;8.40;;;;;;;-144.73;100.00;54785.38;5033741;28;20357;-77
2024/01/13 03:57:57;;;;;;;26.45;8.65;;;;;;;-144.73;100.00;54727.91;5036099;28;20040;-79
2024/01/13 04:00:23;;;;;;;26.23;9.32;;;;;;;-144.73;100.00;54762.81;5052238;28;20392;-77
2024/01/13 04:02:48;;;;;;;23.95;9.65;;;;;;;-144.73;100.00;54736.13;5036260;28;20040;-78
2024/01/13 04:05:14;;;;;;;25.35;9.48;;;;;;;-144.73;100.00;54773.06;5038583;28;20037;-79
2024/01/13 04:07:39;;;;;;;21.58;9.13;;;;;;;-144.73;100.00;54754.59;5036627;28;20057;-78
2024/01/13 04:10:05;;;;;;;27.80;8.75;;;;;;;-144.73;100.00;54764.84;5039422;28;20021;-78
2024/01/13 04:12:31;;;;;;;19.75;9.40;;;;;;;-144.73;100.00;54756.66;5037943;28;20036;-78
2024/01/13 04:14:56;;;;;;;22.33;9.32;;;;;;;-144.73;100.00;54760.75;5036686;28;20036;-78
2024/01/13 04:17:22;;;;;;;27.35;10.25;;;;;;;-144.73;100.00;54768.97;5035936;28;20097;-78
2024/01/13 04:19:50;;;;;;;23.77;9.57;;;;;;;-144.73;100.00;54738.16;5036497;28;20036;-78
2024/01/13 04:22:15;;;;;;;28.42;10.48;;;;;;;-144.73;100.00;54781.28;5034325;28;20029;-79
2024/01/13 04:24:41;;;;;;;33.05;11.93;;;;;;;-144.73;100.00;54740.22;5036877;28;20025;-78
2024/01/13 04:27:06;;;;;;;38.50;12.60;;;;;;;-144.73;100.00;54732.00;5035408;28;20044;-78
2024/01/13 04:29:31;;;;;;;31.27;12.82;;;;;;;-144.73;100.00;54723.81;5036419;28;20055;-78
2024/01/13 04:32:00;;;;;;;32.33;13.10;;;;;;;-144.73;100.00;54758.69;5036031;28;20029;-78
2024/01/13 04:34:25;;;;;;;36.20;12.75;;;;;;;-144.73;100.00;54756.66;5034295;28;20021;-78
2024/01/13 04:36:51;;;;;;;37.35;12.77;;;;;;;-144.73;100.00;54752.53;5036450;28;20037;-78
2024/01/13 04:39:16;;;;;;;39.22;13.23;;;;;;;-144.73;100.00;54756.66;5037053;28;20025;-79
2024/01/13 04:41:44;;;;;;;25.80;11.38;;;;;;;-144.73;100.00;54748.44;5037882;28;20043;-77
2024/01/13 04:44:10;;;;;;;26.83;10.95;;;;;;;-144.73;100.00;54744.31;5035751;28;20036;-78
2024/01/13 04:46:35;;;;;;;20.70;8.05;;;;;;;-144.73;100.00;54768.97;5036343;28;20029;-78
2024/01/13 04:49:01;;;;;;;24.25;8.70;;;;;;;-144.73;100.00;54752.53;5036355;28;20056;-78
2024/01/13 04:51:26;;;;;;;22.25;8.93;;;;;;;-144.73;100.00;54727.91;5034162;28;20034;-79
2024/01/13 04:53:51;;;;;;;19.73;8.43;;;;;;;-144.73;100.00;54719.69;5035555;28;20024;-77
2024/01/13 04:56:17;;;;;;;18.75;7.80;;;;;;;-144.73;100.00;54752.53;5035097;28;20049;-77
2024/01/13 04:58:42;;;;;;;19.80;7.60;;;;;;;-144.73;100.00;54746.38;5035868;28;20017;-78
2024/01/13 05:01:08;;;;;;;18.90;8.32;;;;;;;-144.73;100.00;54732.00;5042530;28;20032;-78
2024/01/13 05:03:35;;;;;;;22.85;8.10;;;;;;;-144.73;100.00;54764.84;5036120;28;20514;-78
2024/01/13 05:06:01;;;;;;;16.20;6.80;;;;;;;-144.73;100.00;54699.16;5034874;28;20037;-78
2024/01/13 05:08:26;;;;;;;14.40;6.20;;;;;;;-144.73;100.00;54711.47;5034048;28;20099;-78
2024/01/13 05:10:52;;;;;;;20.15;7.03;;;;;;;-144.73;100.00;54752.53;5035298;28;20115;-78
2024/01/13 05:13:17;;;;;;;14.65;5.55;;;;;;;-144.73;100.00;54732.00;5035183;28;20060;-78
2024/01/13 05:15:42;;;;;;;15.90;6.35;;;;;;;-144.73;100.00;54764.84;5035377;28;20024;-79
2024/01/13 05:18:08;;;;;;;12.93;5.68;;;;;;;-144.73;100.00;54756.66;5035240;28;20111;-77
2024/01/13 05:20:34;;;;;;;17.63;7.82;;;;;;;-144.73;100.00;54760.75;5034554;28;20021;-78
2024/01/13 05:23:00;;;;;;;14.13;5.63;;;;;;;-144.73;100.00;54727.91;5034712;28;20025;-77
2024/01/13 05:25:25;;;;;;;15.20;6.35;;;;;;;-144.73;100.00;54727.91;5035760;28;20051;-78
2024/01/13 05:27:50;;;;;;;20.88;7.65;;;;;;;-144.73;100.00;54754.59;5039109;28;20045;-78
2024/01/13 05:30:16;;;;;;;15.90;6.50;;;;;;;-144.73;100.00;54727.91;5029529;28;20017;-78
2024/01/13 05:32:41;;;;;;;19.40;7.63;;;;;;;-144.73;100.00;54781.28;5032575;28;20028;-77
2024/01/13 05:35:07;;;;;;;28.85;9.68;;;;;;;-144.73;100.00;54740.22;5034446;28;20428;-77
2024/01/13 05:37:33;;;;;;;24.33;9.15;;;;;;;-144.73;100.00;54764.84;5035421;28;20047;-78
2024/01/13 05:39:59;;;;;;;26.63;9.02;;;;;;;-144.73;100.00;54746.38;5033713;28;20029;-78
2024/01/13 05:42:25;;;;;;;34.50;10.45;;;;;;;-144.73;100.00;54754.59;5027225;28;20439;-79
2024/01/13 05:44:50;;;;;;;30.55;9.55;;;;;;;-144.73;100.00;54752.53;5031752;28;20021;-77
2024/01/13 05:47:16;;;;;;;34.35;11.55;;;;;;;-144.73;100.00;54740.22;5034273;28;20033;-78
2024/01/13 05:49:43;;;;;;;33.40;11.25;;;;;;;-144.73;100.00;54744.31;5035447;28;20049;-78
2024/01/13 05:52:10;;;;;;;27.55;10.63;;;;;;;-144.73;100.00;54729.97;5034437;28;20393;-78
2024/01/13 05:54:39;;;;;;;40.97;11.73;;;;;;;-144.73;100.00;54781.28;5033104;28;20021;-78
2024/01/13 05:57:04;;;;;;;37.13;12.43;;;;;;;-144.73;100.00;54686.84;5030429;28;20033;-78
2024/01/13 05:59:30;;;;;;;27.38;9.25;;;;;;;-144.73;100.00;54740.22;5031337;28;20021;-79
2024/01/13 06:01:55;;;;;;;37.20;11.48;;;;;;;-144.73;100.00;54732.00;5034809;28;20052;-79
2024/01/13 06:04:20;;;;;;;25.60;11.23;;;;;;;-144.73;100.00;54787.44;5034239;28;20107;-79
2024/01/13 06:06:46;;;;;;;29.02;11.52;;;;;;;-144.73;100.00;54801.81;5034678;28;20025;-79
2024/01/13 06:09:11;;;;;;;39.38;12.35;;;;;;;-144.73;100.00;54762.81;5034276;28;20043;-79
2024/01/13 06:11:41;;;;;;;25.80;11.63;;;;;;;-144.73;100.00;54727.91;5033659;28;20055;-78
2024/01/13 06:14:06;;;;;;;26.52;11.45;;;;;;;-144.73;100.00;54736.13;5034488;28;20025;-78
2024/01/13 06:16:31;;;;;;;30.50;13.02;;;;;;;-144.73;100.00;54771.00;5033903;28;20029;-78
2024/01/13 06:18:57;;;;;;;26.25;10.95;;;;;;;-144.73;100.00;54711.47;5034299;28;20108;-78
2024/01/13 06:21:22;;;;;;;19.75;10.32;;;;;;;-144.73;100.00;54801.81;5033130;28;20041;-78
2024/01/13 06:23:48;;;;;;;23.58;12.52;;;;;;;-144.73;100.00;54748.44;5034533;28;20104;-78
2024/01/13 06:26:13;;;;;;;28.20;9.85;;;;;;;-144.73;100.00;54768.97;5025487;28;20031;-77
2024/01/13 06:28:38;;;;;;;21.33;10.02;;;;;;;-144.73;100.00;54727.91;5034402;28;20020;-80
2024/01/13 06:31:04;;;;;;;24.15;11.43;;;;;;;-144.73;100.00;54744.31;5027165;28;20053;-78
2024/01/13 06:33:29;;;;;;;26.27;10.73;;;;;;;-144.73;100.00;54764.84;5034887;28;20021;-78
2024/01/13 06:35:55;;;;;;;27.15;12.00;;;;;;;-144.73;100.00;54744.31;5034619;28;20033;-80
2024/01/13 06:38:20;;;;;;;30.95;11.95;;;;;;;-144.73;100.00;54744.31;5034093;28;20092;-80
2024/01/13 06:40:46;;;;;;;25.48;10.35;;;;;;;-144.73;100.00;54723.81;5033916;28;20108;-79
2024/01/13 06:43:13;;;;;;;22.80;9.90;;;;;;;-144.73;100.00;54760.75;5034153;28;20383;-79
2024/01/13 06:45:41;;;;;;;29.13;11.15;;;;;;;-144.73;100.00;54752.53;5033028;28;20028;-78
2024/01/13 06:48:07;;;;;;;23.90;10.02;;;;;;;-144.73;100.00;54785.38;5033833;28;20472;-78
2024/01/13 06:50:32;;;;;;;22.30;9.85;;;;;;;-144.73;100.00;54707.38;5033126;28;20031;-78
2024/01/13 06:52:57;;;;;;;26.45;9.50;;;;;;;-144.73;100.00;54773.06;5033286;28;20032;-78
2024/01/13 06:55:24;;;;;;;23.83;10.38;;;;;;;-144.73;100.00;54744.31;5034073;28;20023;-78
2024/01/13 06:57:50;;;;;;;23.48;10.48;;;;;;;-144.73;100.00;54727.91;5033085;28;20025;-78
2024/01/13 07:00:17;;;;;;;25.73;11.02;;;;;;;-144.73;100.00;54768.97;5030777;28;20052;-79
2024/01/13 07:02:43;;;;;;;29.58;12.15;;;;;;;-144.73;100.00;54760.75;5029548;28;20499;-78
2024/01/13 07:05:10;;;;;;;27.60;11.68;;;;;;;-144.73;100.00;54723.81;5028954;28;20060;-78
2024/01/13 07:07:35;;;;;;;26.52;12.57;;;;;;;-144.73;100.00;54740.22;5027101;28;20053;-78
2024/01/13 07:10:01;;;;;;;32.83;13.40;;;;;;;-144.73;100.00;54742.28;5033315;28;20056;-78
2024/01/13 07:12:26;;;;;;;32.92;15.02;;;;;;;-144.73;100.00;54752.53;5032636;28;20033;-78
2024/01/13 07:14:51;;;;;;;32.92;12.05;;;;;;;-144.73;100.00;54742.28;5033379;28;20033;-79
2024/01/13 07:17:17;;;;;;;34.05;12.90;;;;;;;-144.73;100.00;54777.16;5030436;28;20068;-78
2024/01/13 07:19:42;;;;;;;30.27;14.23;;;;;;;-144.73;100.00;54746.38;5032020;28;20056;-78
2024/01/13 07:22:08;;;;;;;35.45;12.63;;;;;;;-144.73;100.00;54764.84;5030006;28;20044;-78
2024/01/13 07:24:34;;;;;;;26.60;12.07;;;;;;;-144.73;100.00;54740.22;5032405;28;20021;-79
2024/01/13 07:26:59;;;;;;;24.05;12.30;;;;;;;-144.73;100.00;54732.00;5041224;28;20040;-78
2024/01/13 07:29:24;;;;;;;25.65;11.68;;;;;;;-144.73;100.00;54752.53;5040200;28;20020;-80
2024/01/13 07:31:50;;;;;;;24.67;12.30;;;;;;;-144.73;100.00;54764.84;5038391;28;20029;-78
2024/01/13 07:34:15;;;;;;;27.88;11.73;;;;;;;-144.73;100.00;54725.84;5040203;28;20120;-79
2024/01/13 07:36:40;;;;;;;24.13;9.63;;;;;;;-144.73;100.00;54740.22;5039599;28;20039;-80
2024/01/13 07:39:09;;;;;;;25.25;10.65;;;;;;;-144.73;100.00;54748.44;5039906;28;20029;-78
2024/01/13 07:41:38;;;;;;;17.23;9.60;;;;;;;-144.73;100.00;54752.53;5039513;28;20057;-79
2024/01/13 07:44:03;;;;;;;14.32;8.70;;;;;;;-144.73;100.00;54756.66;5037640;28;20025;-78
2024/01/13 07:46:29;;;;;;;16.63;8.13;;;;;;;-144.73;100.00;54727.91;5036864;28;20036;-79
2024/01/13 07:48:54;;;;;;;33.47;9.13;;;;;;;-144.73;100.00;54760.75;5037294;28;20029;-78
2024/01/13 07:51:19;;;;;;;14.63;8.32;;;;;;;-144.73;100.00;54810.00;5036368;28;20044;-79
2024/01/13 07:53:45;;;;;;;14.48;6.72;;;;;;;-144.73;100.00;54748.44;5036510;28;20024;-74
2024/01/13 07:56:11;;;;;;;19.88;6.93;;;;;;;-144.73;100.00;54760.75;5035517;28;20492;-73
2024/01/13 07:58:36;;;;;;;15.15;7.50;;;;;;;-144.73;100.00;54736.13;5035644;28;20116;-74
2024/01/13 08:01:02;;;;;;;16.70;7.03;;;;;;;-144.73;100.00;54719.69;5035592;28;20043;-73
2024/01/13 08:03:28;;;;;;;13.50;6.60;;;;;;;-144.73;100.00;54711.47;5035566;28;20028;-74
2024/01/13 08:05:53;;;;;;;13.05;6.20;;;;;;;-144.73;100.00;54727.91;5036421;28;20044;-74
2024/01/13 08:08:19;;;;;;;10.02;5.25;;;;;;;-144.73;100.00;54777.16;5036511;28;20036;-73
2024/01/13 08:10:44;;;;;;;11.20;5.40;;;;;;;-144.73;100.00;54740.22;5035690;28;20025;-72
2024/01/13 08:13:10;;;;;;;13.93;5.30;;;;;;;-144.73;100.00;54740.22;5036237;28;20036;-73
2024/01/13 08:15:36;;;;;;;9.95;4.63;;;;;;;-144.73;100.00;54732.00;5035996;28;20119;-74
2024/01/13 08:18:01;;;;;;;9.77;6.00;;;;;;;-144.73;100.00;54754.59;5035819;28;20116;-74
2024/01/13 08:20:27;;;;;;;9.20;5.15;;;;;;;-144.73;100.00;54768.97;5024596;28;20040;-74
2024/01/13 08:22:52;;;;;;;12.27;4.57;;;;;;;-144.73;100.00;54781.28;5034200;28;20116;-74
2024/01/13 08:25:17;;;;;;;15.13;5.75;;;;;;;-144.73;100.00;54752.53;5036653;28;20036;-73
2024/01/13 08:27:43;;;;;;;10.48;5.20;;;;;;;-144.73;100.00;54760.75;5036346;28;20033;-74
2024/01/13 08:30:08;;;;;;;9.00;6.25;;;;;;;-144.73;100.00;54760.75;5035625;28;20040;-73
2024/01/13 08:32:34;;;;;;;9.68;5.38;;;;;;;-144.73;100.00;54717.66;5035002;28;20041;-74
2024/01/13 08:34:59;;;;;;;9.32;5.10;;;;;;;-144.73;100.00;54738.16;5035725;28;20025;-73
2024/01/13 08:37:25;;;;;;;14.23;6.10;;;;;;;-144.73;100.00;54756.66;5035980;28;20057;-74
2024/01/13 08:39:50;;;;;;;10.98;6.35;;;;;;;-144.73;100.00;54703.28;5034306;28;20059;-74
2024/01/13 08:42:16;;;;;;;11.85;6.82;;;;;;;-144.73;100.00;54748.44;5032811;28;20029;-74
2024/01/13 08:44:42;;;;;;;11.18;6.57;;;;;;;-144.73;100.00;54729.97;5032805;28;20021;-74
2024/01/13 08:47:09;;;;;;;12.63;6.13;;;;;;;-144.73;100.00;54744.31;5035259;28;20128;-74
2024/01/13 08:49:35;;;;;;;11.32;5.43;;;;;;;-144.73;100.00;54777.16;5033261;28;20033;-74
2024/01/13 08:52:01;;;;;;;11.35;5.65;;;;;;;-144.73;100.00;54740.22;5035166;28;20452;-73
2024/01/13 08:54:26;;;;;;;9.70;5.47;;;;;;;-144.73;100.00;54740.22;5034993;28;20107;-73
2024/01/13 08:56:52;;;;;;;10.70;6.18;;;;;;;-144.73;100.00;54801.81;5037872;28;20492;-73
2024/01/13 08:59:17;;;;;;;9.82;6.80;;;;;;;-144.73;100.00;54709.44;5036330;28;20112;-73
2024/01/13 09:01:42;;;;;;;11.05;7.00;;;;;;;-144.73;100.00;54738.16;5034389;28;20060;-73
2024/01/13 09:04:09;;;;;;;16.00;7.55;;;;;;;-144.73;100.00;54732.00;5035161;28;20048;-73
2024/01/13 09:06:34;;;;;;;17.58;8.15;;;;;;;-144.73;100.00;54736.13;5026074;28;20040;-74
2024/01/13 09:09:00;;;;;;;14.07;6.93;;;;;;;-144.73;100.00;54756.66;5032014;28;20028;-74
2024/01/13 09:11:25;;;;;;;14.35;6.38;;;;;;;-144.73;100.00;54748.44;5031915;28;20032;-74
2024/01/13 09:13:50;;;;;;;11.98;6.40;;;;;;;-144.73;100.00;54760.75;5032316;28;20029;-74
2024/01/13 09:16:16;;;;;;;9.40;5.45;;;;;;;-144.73;100.00;54766.91;5033989;28;20044;-74
2024/01/13 09:18:41;;;;;;;10.55;5.80;;;;;;;-144.73;100.00;54719.69;5034464;28;20036;-74
2024/01/13 09:21:08;;;;;;;15.10;5.70;;;;;;;-144.73;100.00;54744.31;5033752;28;20037;-74
2024/01/13 09:23:34;;;;;;;18.67;5.90;;;;;;;-144.73;100.00;54760.75;5034944;28;20159;-73
2024/01/13 09:26:03;;;;;;;9.13;5.72;;;;;;;-144.73;100.00;54760.75;5030573;28;20043;-74
2024/01/13 09:28:28;;;;;;;12.20;6.10;;;;;;;-144.74;100.00;63161.41;5028154;28;20567;-73
2024/01/13 09:30:54;;;;;;;12.98;5.47;;;;;;;-144.74;100.00;63161.41;5023829;28;20083;-73
2024/01/13 09:33:19;;;;;;;15.07;5.45;;;;;;;-144.74;100.00;63161.41;5026768;28;20024;-74
2024/01/13 09:35:44;;;;;;;9.32;5.18;;;;;;;-144.74;100.00;63161.41;5034015;28;20029;-73
2024/01/13 09:38:10;;;;;;;8.15;4.55;;;;;;;-144.74;100.00;63161.41;5033738;28;20025;-74
2024/01/13 09:40:41;;;;;;;8.75;4.80;;;;;;;-144.74;100.00;63161.41;5033442;28;20079;-72
2024/01/13 09:43:21;;;;;;;11.15;5.63;;;;;;;-144.74;100.00;63161.41;5034000;28;20029;-74
2024/01/13 09:45:49;;;;;;;7.75;4.40;;;;;;;-144.74;100.00;63161.41;5031985;28;20025;-73
2024/01/13 09:48:17;;;;;;;10.52;4.63;;;;;;;-144.74;100.00;63161.41;5025651;28;20116;-73
2024/01/13 09:50:48;;;;;;;8.32;4.60;;;;;;;-144.73;100.00;54773.06;5030175;28;20021;-73
2024/01/13 09:53:26;;;;;;;13.55;5.35;;;;;;;-144.73;100.00;54736.13;5029218;28;20136;-73
2024/01/13 09:55:55;;;;;;;8.13;5.32;;;;;;;-144.73;100.00;54744.31;5020027;28;20120;-74
2024/01/13 09:58:21;;;;;;;12.20;5.65;;;;;;;-144.73;100.00;54748.44;5028639;28;20088;-74
2024/01/13 10:00:49;;;;;;;10.38;5.60;;;;;;;-144.73;100.00;54760.75;5023186;28;20104;-73
2024/01/13 10:03:14;;;;;;;8.45;4.60;;;;;;;-144.73;100.00;54752.53;5023499;28;20028;-73
2024/01/13 10:05:39;;;;;;;7.10;5.18;;;;;;;-144.73;100.00;54768.97;5029100;28;20023;-73
2024/01/13 10:08:05;;;;;;;7.82;4.72;;;;;;;-144.74;100.00;63161.41;5026659;28;20495;-73
2024/01/13 10:10:32;;;;;;;7.97;5.47;;;;;;;-144.74;100.00;63161.41;5031323;28;20013;-73
2024/01/13 10:12:57;;;;;;;9.98;4.90;;;;;;;-144.74;100.00;63161.41;5032904;28;20025;-73
2024/01/13 10:15:22;;;;;;;6.60;4.22;;;;;;;-144.74;100.00;63161.41;5029548;28;20082;-73
2024/01/13 10:17:51;;;;;;;7.80;4.80;;;;;;;-144.74;100.00;63161.41;5030909;28;20041;-74
2024/01/13 10:20:17;;;;;;;12.57;6.05;;;;;;;-144.74;100.00;63161.41;5029805;28;20088;-73
2024/01/13 10:22:42;;;;;;;12.35;6.18;;;;;;;-144.74;100.00;63161.41;5029948;28;20102;-73
2024/01/13 10:25:08;;;;;;;8.00;4.65;;;;;;;-144.74;100.00;63161.41;5031298;28;20518;-73
2024/01/13 10:27:37;;;;;;;8.77;4.90;;;;;;;-144.74;100.00;63161.41;5031306;28;20032;-73
2024/01/13 10:30:06;;;;;;;9.07;5.55;;;;;;;-144.74;100.00;63161.41;5030811;28;20013;-74
2024/01/13 10:32:31;;;;;;;8.38;5.63;;;;;;;-144.74;100.00;63161.41;5031007;28;20037;-74
2024/01/13 10:34:57;;;;;;;8.25;5.28;;;;;;;-144.74;100.00;63161.41;5030763;28;20372;-74
2024/01/13 10:37:25;;;;;;;10.13;6.18;;;;;;;-144.74;100.00;63161.41;5030698;28;20413;-73
2024/01/13 10:39:51;;;;;;;9.27;4.72;;;;;;;-144.74;100.00;63161.41;5024615;28;20021;-75
2024/01/13 10:42:20;;;;;;;8.85;5.28;;;;;;;-144.74;100.00;63161.41;5026023;28;20337;-75
2024/01/13 10:44:56;;;;;;;10.40;5.63;;;;;;;-144.74;100.00;63161.41;5031235;28;20581;-74
2024/01/13 10:47:33;;;;;;;11.57;5.78;;;;;;;-144.74;100.00;63161.41;5030382;28;20037;-73
2024/01/13 10:49:58;;;;;;;10.60;5.70;;;;;;;-144.74;100.00;63161.41;5034433;28;20017;-73
2024/01/13 10:52:33;;;;;;;14.82;6.18;;;;;;;-144.74;100.00;63161.41;5029181;28;20074;-73
2024/01/13 10:55:03;;;;;;;10.35;6.07;;;;;;;-144.74;100.00;63161.41;5027705;28;20507;-74
2024/01/13 10:57:29;;;;;;;9.60;5.80;;;;;;;-144.74;100.00;63161.41;5028858;28;20056;-73